Hall, MT (59837)

1:50 AM MST on November 26, 2014 (GMT -0700)
goosetown 2 | Change Station
CLOSE
Current Station
Personal Weather Station
Location: Anaconda, MT
Elevation: 5240 ft
Nearby Weather Stations
Active Advisory: Winter Weather Advisory Active Notice: Record Report

Elev 5240 ft 46.13 °N, 112.94 °W | Updated 3 minutes ago

Snow
Snow
26.7 °F
Feels Like 27 °F
N
0.0
Wind Variable Wind from ESE
Gusts 17.0 mph

Today
High -- | Low -- °F
--% Chance of Precip.
Yesterday
High -- | Low -- °F
Precip. -- in
7:49 AM 4:50 PM
Waxing Crescent, 18% visible
Pressure 30.07 in
Visibility 1.2 miles
Clouds Overcast 1500 ft
Windchill 27 °F
Dew Point 25 °F
Humidity 94%
Rainfall 0.00 in
Snow Depth Not available.
UV 0 out of 12
Pollen .10 out of 12
Air Quality Not available.
Flu Activity Not available.
SPECI KBTM 260807Z AUTO 00000KT 1 1/4SM -SN BR OVC015 M03/M04 A3007 RMK AO2 P0000 T10281039

More Conditions Fewer Conditions

Pressure 30.07 in
Visibility 1.2 miles
Clouds Overcast 1500 ft
Windchill 27 °F
Dew Point 25 °F
Humidity 94%
Rainfall 0.00 in
Snow Depth Not available.
UV 0 out of 12
Pollen .10 out of 12
Air Quality Not available.
Flu Activity Not available.
SPECI KBTM 260807Z AUTO 00000KT 1 1/4SM -SN BR OVC015 M03/M04 A3007 RMK AO2 P0000 T10281039

More Conditions Fewer Conditions

10-Day Weather Forecast

Almanac

Astronomy

Nov. 26, 2014 Rise Set
Actual Time
Civil Twilight
Nautical Twilight
Astronomical Twilight
Moon
Length of Visible Light
Length of Day
Tomorrow will be .
, % of the Moon is Illuminated

Today's Extremes

State Highs State Lows

Community

WunderPhotos

Upload Photos

1,773,694 photos uploaded!

WunderBlogs® & News

Nearby

Air Quality

  Air Quality AQ Index Pollutant
Not available.

Snow Depth

Station Depth Elevation

Earthquake Activity

City Distance Mag. Time & Date
Minimum magnitude displayed is 2.5.

Coastal Water Temperatures

Place Temperature

Nearby Weather Stations